D/T METAR WX W/DIR W/SPE G/SPE TEMP DEWP
23/08/19 17:20 EGEC 231620Z 15018KT 9999 FEW047 17/15 Q1018 SSE (150°) 20.7mph 17°C 15°C
23/08/19 16:50 EGEC 231550Z 14014KT 9999 FEW046 19/16 Q1018 SE (140°) 16.1mph 19°C 16°C
23/08/19 16:20 EGEC 231520Z 14014KT 9999 FEW048 18/15 Q1018 SE (140°) 16.1mph 18°C 15°C
23/08/19 15:50 EGEC 231450Z 15014KT 9999 SCT042 18/15 Q1018 SSE (150°) 16.1mph 18°C 15°C
23/08/19 15:20 EGEC 231420Z 16013KT 9999 SCT032 19/15 Q1018 SSE (160°) 15.0mph 19°C 15°C
23/08/19 14:50 EGEC 231350Z 16009KT 9999 SCT034 20/15 Q1019 SSE (160°) 10.4mph 20°C 15°C
23/08/19 14:20 EGEC 231320Z 14012KT 9999 SCT027 20/15 Q1019 SE (140°) 13.8mph 20°C 15°C
23/08/19 13:50 EGEC 231250Z 15012KT 9999 SCT027 18/14 Q1019 SSE (150°) 13.8mph 18°C 14°C
23/08/19 13:20 EGEC 231220Z 22011KT 9999 SCT027 20/14 Q1019 SW (220°) 12.7mph 20°C 14°C
23/08/19 12:50 EGEC 231150Z 19011KT 9999 SCT026 20/15 Q1019 S (190°) 12.7mph 20°C 15°C
23/08/19 11:50 EGEC 231050Z 18014KT 9999 SCT025 18/13 Q1019 S (180°) 16.1mph 18°C 13°C
23/08/19 11:20 EGEC 231020Z 19006KT 9999 SCT025 18/13 Q1019 S (190°) 6.9mph 18°C 13°C
23/08/19 10:50 EGEC 230950Z 21009KT 9999 SCT024 18/12 Q1019 SSW (210°) 10.4mph 18°C 12°C
23/08/19 09:50 EGEC 230850Z 20005KT 9999 FEW023 17/13 Q1019 SSW (200°) 5.8mph 17°C 13°C
23/08/19 09:20 EGEC 230820Z 17005KT 9999 FEW023 17/13 Q1019 S (170°) 5.8mph 17°C 13°C
23/08/19 08:50 EGEC 230750Z 19005KT 9999 FEW027 17/13 Q1019 S (190°) 5.8mph 17°C 13°C
23/08/19 08:20 EGEC 230720Z 11008KT 9999 FEW021 17/13 Q1019 ESE (110°) 9.2mph 17°C 13°C
23/08/19 07:50 EGEC 230650Z 13008KT 9999 SCT026 16/14 Q1019 SE (130°) 9.2mph 16°C 14°C
22/08/19 17:20 EGEC 221620Z 23015KT 9999 -RA FEW010 SCT020 BKN030 18/16 Q1013 -RA SW (230°) 17.3mph 18°C 16°C
22/08/19 16:20 EGEC 221520Z 22010KT 9999 FEW010 BKN021 18/17 Q1013 SW (220°) 11.5mph 18°C 17°C
22/08/19 15:20 EGEC 221420Z 21014KT 9999 FEW024 BKN048 18/16 Q1013 SSW (210°) 16.1mph 18°C 16°C
22/08/19 14:50 EGEC 221350Z 21015KT 9999 -RA SCT026 SCT030 BKN045 17/15 Q1013 -RA SSW (210°) 17.3mph 17°C 15°C
22/08/19 14:20 EGEC 221320Z 21016KT 9999 FEW012 SCT028 17/15 Q1013 SSW (210°) 18.4mph 17°C 15°C
22/08/19 13:50 EGEC 221250Z 21014KT 9000 -RA SCT023 BKN042 17/15 Q1013 -RA SSW (210°) 16.1mph 17°C 15°C
22/08/19 13:20 EGEC 221220Z 19013KT 9999 SCT024 SCT036 16/14 Q1013 S (190°) 15.0mph 16°C 14°C
22/08/19 12:50 EGEC 221150Z 19013KT 9999 SCT024 BKN036 16/14 Q1013 S (190°) 15.0mph 16°C 14°C
22/08/19 12:20 EGEC 221120Z 19014KT 9999 BKN027 SCT037 16/13 Q1013 S (190°) 16.1mph 16°C 13°C
22/08/19 11:50 EGEC 221050Z 19014KT 9999 FEW020 BKN033 16/13 Q1013 S (190°) 16.1mph 16°C 13°C
22/08/19 11:20 EGEC 221020Z 20013KT 9999 SCT035 BKN047 15/12 Q1014 SSW (200°) 15.0mph 15°C 12°C
22/08/19 10:50 EGEC 220950Z 19013KT 9999 FEW020 BKN043 16/11 Q1014 S (190°) 15.0mph 16°C 11°C
22/08/19 10:20 EGEC 220920Z 21014KT 9999 FEW018 17/12 Q1014 SSW (210°) 16.1mph 17°C 12°C
22/08/19 09:50 EGEC 220850Z 20014KT 9999 FEW018 16/12 Q1014 SSW (200°) 16.1mph 16°C 12°C
22/08/19 09:20 EGEC 220820Z 21011KT 9999 FEW020 16/12 Q1014 SSW (210°) 12.7mph 16°C 12°C
22/08/19 08:50 EGEC 220750Z 20010KT 9999 FEW018 15/12 Q1014 SSW (200°) 11.5mph 15°C 12°C
22/08/19 08:20 EGEC 220720Z 20011KT 9999 FEW015 15/12 Q1014 SSW (200°) 12.7mph 15°C 12°C
22/08/19 07:50 EGEC 220650Z 21010KT 9999 FEW012 14/11 Q1014 SSW (210°) 11.5mph 14°C 11°C
21/08/19 17:20 EGEC 211620Z 17021KT 9999 RA BKN009 SCT016 15/14 Q1013 RA S (170°) 24.2mph 15°C 14°C
21/08/19 16:50 EGEC 211550Z 17023KT 4000 RA BKN009 14/14 Q1013 RA S (170°) 26.5mph 14°C 14°C
21/08/19 16:20 EGEC 211520Z 17020KT 6000 RA SCT012 BKN048 14/14 Q1014 RA S (170°) 23.0mph 14°C 14°C
21/08/19 15:50 EGEC 211450Z 16022KT 4800 RA FEW015 BKN048 14/13 Q1014 RA SSE (160°) 25.3mph 14°C 13°C
21/08/19 15:20 EGEC 211420Z 17021KT 6000 RA FEW015 BKN048 14/13 Q1015 RA S (170°) 24.2mph 14°C 13°C
21/08/19 14:50 EGEC 211350Z 17018KT 6000 RA BKN048 14/13 Q1015 RA S (170°) 20.7mph 14°C 13°C
21/08/19 14:20 EGEC 211320Z 18017KT 6000 RA BKN048 14/13 Q1016 RA S (180°) 19.6mph 14°C 13°C
21/08/19 13:50 EGEC 211250Z 17015KT 7000 RADZ FEW015 BKN048 14/13 Q1016 RA DZ S (170°) 17.3mph 14°C 13°C
21/08/19 13:20 EGEC 211220Z 16013KT 4500 RADZ FEW015 BKN048 14/13 Q1017 RA DZ SSE (160°) 15.0mph 14°C 13°C
21/08/19 12:20 EGEC 211120Z 16016KT 9999 FEW014 15/13 Q1017 SSE (160°) 18.4mph 15°C 13°C
21/08/19 11:50 EGEC 211050Z 17019KT 9999 FEW015 16/13 Q1017 S (170°) 21.9mph 16°C 13°C
21/08/19 11:20 EGEC 211020Z 16017KT 9999 FEW014 16/14 Q1017 SSE (160°) 19.6mph 16°C 14°C